SBSM/RIA METAR and TAF weather

Enter ICAO airport designator
Station Type Date Time Source
SBSM METAR 2019/12/10 03:00 UTC NOAA

SBSM 100300Z 32003KT 290V350 CAVOK 21/14 Q1011


Station Type Date Time Source
SBSM Decoded METAR 2019/12/10 03:00 UTC NOAA

Santa Maria Aero-Porto , Brazil (SBSM) 29-43S 053-42W
Dec 09, 2019 - 10:00 PM EST / 2019.12.10 0300 UTC
Wind: from the NW (320 degrees) at 3 MPH (3 KT) (direction variable):0
Visibility: greater than 7 mile(s):0
Temperature: 69 F (21 C)
Dew Point: 57 F (14 C)
Relative Humidity: 64%
Pressure (altimeter): 29.85 in. Hg (1011 hPa)
ob: SBSM 100300Z 32003KT 290V350 CAVOK 21/14 Q1011
cycle: 3

Station Type Date Time Source
SBSM TAF 2019/12/10 00:33 UTC NOAA

TAF SBSM 092230Z 1000/1012 06005KT CAVOK TN19/1008Z TX28/1012Z
RMK PEL

Example: see airport list